Time;durP1;ratioP1;P1;durP2;ratioP2;P2;SDS_P1;SDS_P2;PMS_P1;PMS_P2;Temp;Humidity;BMP_temperature;BMP_pressure;BME280_temperature;BME280_humidity;BME280_pressure;Samples;Min_cycle;Max_cycle;Signal;HPM_P1;HPM_P2
2021/12/24 00:02:13;;;;;;;58.10;37.45;;;4.60;99.90;;;;;;5059893;28;20059;-60
2021/12/24 00:04:39;;;;;;;52.00;32.45;;;4.70;99.90;;;;;;5056510;28;20172;-59
2021/12/24 00:07:05;;;;;;;52.67;35.13;;;4.80;99.90;;;;;;5052375;28;20492;-58
2021/12/24 00:09:33;;;;;;;49.50;32.20;;;4.80;99.90;;;;;;5052211;28;20578;-58
2021/12/24 00:12:02;;;;;;;45.90;30.65;;;4.80;99.90;;;;;;5035193;28;20024;-59
2021/12/24 00:14:30;;;;;;;49.35;31.35;;;4.90;99.90;;;;;;5050180;28;20052;-59
2021/12/24 00:17:03;;;;;;;48.10;31.27;;;4.90;99.90;;;;;;5057746;28;20134;-58
2021/12/24 00:35:34;;;;;;;41.60;26.50;;;5.10;99.90;;;;;;5057757;28;20040;-52
2021/12/24 00:38:06;;;;;;;40.92;25.13;;;5.10;99.90;;;;;;5064024;28;20098;-54
2021/12/24 00:40:36;;;;;;;38.38;25.50;;;5.10;99.90;;;;;;5066811;28;20041;-56
2021/12/24 00:43:02;;;;;;;37.63;25.92;;;5.10;99.90;;;;;;5058343;28;20052;-57
2021/12/24 00:45:34;;;;;;;35.45;23.40;;;5.10;99.90;;;;;;5060107;28;20020;-56
2021/12/24 00:48:02;;;;;;;37.45;24.40;;;5.20;99.90;;;;;;5063855;28;20078;-57
2021/12/24 00:50:32;;;;;;;34.08;24.20;;;5.20;99.90;;;;;;5067397;28;20029;-56
2021/12/24 00:55:02;;;;;;;33.70;23.33;;;5.20;99.90;;;;;;5037984;28;20033;-59
2021/12/24 00:55:50;;;;;;;29.85;21.00;;;5.30;99.90;;;;;;5060400;28;20036;-57
2021/12/24 00:58:16;;;;;;;32.92;23.73;;;5.30;99.90;;;;;;5056964;28;20075;-54
2021/12/24 01:00:41;;;;;;;28.45;20.98;;;5.30;99.90;;;;;;5067170;28;20029;-56
2021/12/24 01:03:12;;;;;;;28.60;21.55;;;5.30;99.90;;;;;;5066966;28;20416;-58
2021/12/24 01:05:38;;;;;;;25.95;20.63;;;5.40;99.90;;;;;;5066449;28;20032;-56
2021/12/24 01:08:05;;;;;;;30.48;21.17;;;5.40;99.90;;;;;;5062371;28;20020;-52
2021/12/24 01:10:35;;;;;;;31.20;20.25;;;5.40;99.90;;;;;;5058909;28;20570;-54
2021/12/24 01:13:01;;;;;;;26.73;19.80;;;5.40;99.90;;;;;;5069157;28;20052;-54
2021/12/24 01:15:29;;;;;;;25.42;19.88;;;5.30;99.90;;;;;;5057441;28;20052;-52
2021/12/24 01:18:15;;;;;;;27.42;19.67;;;5.40;99.90;;;;;;5071665;28;20040;-56
2021/12/24 01:20:48;;;;;;;30.98;21.83;;;5.40;99.90;;;;;;5052609;28;20028;-55
2021/12/24 01:23:36;;;;;;;27.40;19.55;;;5.40;99.90;;;;;;5053490;28;20473;-54
2021/12/24 01:26:06;;;;;;;27.60;20.00;;;5.40;99.90;;;;;;5054585;28;20037;-53
2021/12/24 01:29:04;;;;;;;28.08;20.33;;;5.40;99.90;;;;;;5054502;28;20163;-51
2021/12/24 01:44:59;;;;;;;31.30;22.55;;;5.40;99.90;;;;;;5054452;28;20021;-58
2021/12/24 01:47:24;;;;;;;28.75;21.88;;;5.40;99.90;;;;;;5054426;28;20537;-57
2021/12/24 01:49:50;;;;;;;30.00;20.90;;;5.40;99.90;;;;;;5054290;28;20033;-56
2021/12/24 01:52:16;;;;;;;29.17;21.77;;;5.50;99.90;;;;;;5054221;28;20053;-56
2021/12/24 01:54:43;;;;;;;29.77;22.25;;;5.30;99.90;;;;;;5054906;28;20041;-59
2021/12/24 01:57:10;;;;;;;28.00;21.10;;;5.40;99.90;;;;;;5055061;28;20025;-57
2021/12/24 01:59:36;;;;;;;30.58;22.35;;;5.40;99.90;;;;;;5054158;28;20033;-54
2021/12/24 02:02:01;;;;;;;28.67;22.65;;;5.40;99.90;;;;;;5053731;28;20075;-57
2021/12/24 02:04:28;;;;;;;29.67;21.85;;;5.30;99.90;;;;;;5053489;28;20040;-56
2021/12/24 02:06:54;;;;;;;30.13;22.30;;;5.40;99.90;;;;;;5053910;28;20042;-58
2021/12/24 02:09:19;;;;;;;32.92;22.17;;;5.40;99.90;;;;;;5053557;28;20025;-55
2021/12/24 02:11:45;;;;;;;34.78;24.25;;;5.40;99.90;;;;;;5053991;28;20025;-54
2021/12/24 02:14:18;;;;;;;31.45;22.63;;;5.50;99.90;;;;;;5053864;28;20408;-59
2021/12/24 02:30:10;;;;;;;32.13;22.08;;;5.50;99.90;;;;;;5053372;28;20500;-56
2021/12/24 02:32:42;;;;;;;29.63;22.23;;;5.60;99.90;;;;;;5053351;28;20510;-57
2021/12/24 02:35:10;;;;;;;28.92;21.20;;;5.60;99.90;;;;;;5052864;28;20041;-56
2021/12/24 02:37:36;;;;;;;33.05;22.08;;;5.60;99.90;;;;;;5053455;28;20040;-56
2021/12/24 02:40:03;;;;;;;28.55;20.50;;;5.70;99.90;;;;;;5053495;28;20065;-53
2021/12/24 02:42:30;;;;;;;30.38;21.48;;;5.70;99.90;;;;;;5053377;28;20040;-53
2021/12/24 02:44:56;;;;;;;29.65;20.50;;;5.70;99.90;;;;;;5051060;28;20391;-55
2021/12/24 02:55:16;;;;;;;25.45;17.85;;;5.80;99.90;;;;;;5050630;28;20029;-57
2021/12/24 02:57:43;;;;;;;24.05;18.55;;;5.90;99.90;;;;;;5051130;28;20094;-58
2021/12/24 03:00:19;;;;;;;24.48;17.80;;;5.90;99.90;;;;;;5050851;28;20496;-56
2021/12/24 03:02:47;;;;;;;25.00;18.45;;;5.90;99.90;;;;;;5051025;28;20033;-57
2021/12/24 03:05:14;;;;;;;25.25;18.10;;;5.90;99.90;;;;;;5050607;28;20116;-58
2021/12/24 03:07:41;;;;;;;24.48;18.38;;;5.90;99.90;;;;;;5047080;28;20026;-58
2021/12/24 03:10:12;;;;;;;26.23;20.20;;;5.90;99.90;;;;;;5030006;28;20075;-53
2021/12/24 03:12:39;;;;;;;23.75;18.08;;;5.90;99.90;;;;;;5031119;28;20057;-51
2021/12/24 03:15:06;;;;;;;25.33;18.85;;;5.90;99.90;;;;;;5029922;28;20038;-55
2021/12/24 03:17:32;;;;;;;24.45;19.10;;;5.90;99.90;;;;;;5046671;28;20078;-52
2021/12/24 03:20:04;;;;;;;30.60;21.50;;;5.90;99.90;;;;;;5051170;28;20033;-56
2021/12/24 03:25:08;;;;;;;26.17;19.98;;;5.90;99.90;;;;;;5054895;28;20078;-54
2021/12/24 03:27:34;;;;;;;26.40;19.58;;;5.90;99.90;;;;;;5056282;28;20116;-51
2021/12/24 03:29:59;;;;;;;27.23;19.45;;;5.90;99.90;;;;;;5056529;28;20071;-55
2021/12/24 03:32:26;;;;;;;24.48;18.35;;;6.00;99.90;;;;;;5056899;28;20052;-58
2021/12/24 03:34:52;;;;;;;26.73;20.50;;;6.00;99.90;;;;;;5056527;28;20041;-56
2021/12/24 03:37:18;;;;;;;26.40;19.77;;;6.00;99.90;;;;;;5056244;28;20056;-59
2021/12/24 03:39:43;;;;;;;26.92;20.17;;;6.10;99.90;;;;;;5056664;28;20459;-57
2021/12/24 03:42:09;;;;;;;30.50;20.35;;;6.00;99.90;;;;;;5056034;28;20029;-56
2021/12/24 03:44:52;;;;;;;27.50;21.63;;;6.10;99.90;;;;;;5056092;28;20063;-57
2021/12/24 03:47:20;;;;;;;29.85;21.13;;;6.10;99.90;;;;;;5055844;28;20043;-58
2021/12/24 03:52:35;;;;;;;29.90;21.65;;;6.10;99.90;;;;;;5053926;28;20037;-53
2021/12/24 03:55:01;;;;;;;29.88;22.33;;;6.10;99.90;;;;;;5034207;28;20038;-53
2021/12/24 03:57:32;;;;;;;30.27;20.85;;;6.20;99.90;;;;;;5033023;28;20048;-53
2021/12/24 04:00:30;;;;;;;26.52;19.70;;;6.20;99.90;;;;;;5053864;28;20546;-55
2021/12/24 04:02:55;;;;;;;27.75;20.80;;;6.30;99.90;;;;;;5050840;28;20124;-58
2021/12/24 04:05:21;;;;;;;26.83;19.90;;;6.30;99.90;;;;;;5035764;28;20128;-51
2021/12/24 04:07:47;;;;;;;27.65;20.50;;;6.30;99.90;;;;;;5034935;28;20060;-53
2021/12/24 04:10:46;;;;;;;26.50;20.08;;;6.30;99.90;;;;;;5053474;28;20078;-58
2021/12/24 04:13:06;;;;;;;25.55;19.10;;;6.30;99.90;;;;;;5050808;28;20476;-55
2021/12/24 04:15:32;;;;;;;27.88;20.98;;;6.30;99.90;;;;;;5036516;28;20049;-53
2021/12/24 04:17:58;;;;;;;24.58;19.27;;;6.30;99.90;;;;;;5037186;28;20029;-54
2021/12/24 04:25:52;;;;;;;24.63;19.00;;;6.40;99.90;;;;;;5055380;28;20289;-56
2021/12/24 04:28:18;;;;;;;23.92;19.27;;;6.40;99.90;;;;;;5054869;28;20041;-56
2021/12/24 04:30:48;;;;;;;24.70;19.38;;;6.50;99.90;;;;;;5054851;28;20408;-59
2021/12/24 04:33:21;;;;;;;28.00;18.95;;;6.40;99.90;;;;;;5036767;28;20036;-56
2021/12/24 04:35:58;;;;;;;26.38;18.73;;;6.50;99.90;;;;;;5056265;28;20162;-55
2021/12/24 04:38:34;;;;;;;20.55;16.42;;;6.50;99.90;;;;;;5055367;28;20045;-55
2021/12/24 04:52:18;;;;;;;22.58;17.75;;;6.70;99.90;;;;;;5055512;28;20037;-52
2021/12/24 05:03:04;;;;;;;24.75;18.80;;;6.70;99.90;;;;;;5055465;28;20739;-53
2021/12/24 05:05:45;;;;;;;25.67;18.70;;;6.80;99.90;;;;;;5055028;28;20098;-57
2021/12/24 05:10:41;;;;;;;24.80;18.95;;;6.80;99.90;;;;;;5054570;28;20029;-55
2021/12/24 05:13:09;;;;;;;27.13;20.05;;;6.80;99.90;;;;;;5053336;28;20033;-59
2021/12/24 05:15:38;;;;;;;29.48;20.42;;;6.80;99.90;;;;;;5036643;28;20037;-55
2021/12/24 05:18:30;;;;;;;25.60;20.17;;;6.80;99.90;;;;;;5041580;28;20497;-56
2021/12/24 05:23:41;;;;;;;27.63;20.97;;;6.90;99.90;;;;;;5036118;28;20029;-51
2021/12/24 05:26:07;;;;;;;28.98;20.67;;;6.90;99.90;;;;;;5054823;28;20057;-56
2021/12/24 05:28:33;;;;;;;27.08;19.52;;;7.00;99.90;;;;;;5054618;28;20593;-55
2021/12/24 05:30:58;;;;;;;27.35;20.42;;;7.00;99.90;;;;;;5053909;28;20035;-50
2021/12/24 05:33:24;;;;;;;25.90;19.52;;;7.00;99.90;;;;;;5036856;28;20037;-53
2021/12/24 05:35:50;;;;;;;25.75;20.05;;;7.00;99.90;;;;;;5036803;28;20037;-57
2021/12/24 05:38:16;;;;;;;28.58;20.88;;;7.00;99.90;;;;;;5053864;28;20041;-61
2021/12/24 05:40:44;;;;;;;30.50;21.80;;;6.90;99.90;;;;;;5055080;28;20033;-60
2021/12/24 05:43:10;;;;;;;30.88;21.45;;;6.90;99.90;;;;;;5054507;28;20033;-58
2021/12/24 05:45:36;;;;;;;32.80;22.75;;;6.90;99.90;;;;;;5053478;28;20071;-59
2021/12/24 05:48:02;;;;;;;30.95;22.52;;;6.90;99.90;;;;;;5053893;28;20041;-58
2021/12/24 05:50:28;;;;;;;29.38;21.65;;;6.90;99.90;;;;;;5054301;28;20037;-58
2021/12/24 05:52:53;;;;;;;31.83;22.48;;;6.90;99.90;;;;;;5050640;28;20035;-58
2021/12/24 05:55:19;;;;;;;34.28;21.48;;;6.90;99.90;;;;;;5054144;28;20370;-56
2021/12/24 05:57:45;;;;;;;36.42;22.60;;;6.90;99.90;;;;;;5044835;28;20040;-57
2021/12/24 06:00:12;;;;;;;35.15;22.20;;;7.00;99.90;;;;;;5053467;28;20029;-59
2021/12/24 06:02:37;;;;;;;30.83;24.08;;;7.00;99.90;;;;;;5044630;28;20032;-58
2021/12/24 06:05:03;;;;;;;28.75;21.98;;;7.10;99.90;;;;;;5052529;28;20066;-58
2021/12/24 06:07:29;;;;;;;30.80;22.95;;;7.10;99.90;;;;;;5053624;28;20090;-55
2021/12/24 06:09:55;;;;;;;30.45;22.17;;;7.10;99.90;;;;;;5043492;28;20112;-58
2021/12/24 06:12:20;;;;;;;32.75;22.25;;;7.20;99.90;;;;;;5053895;28;20583;-57
2021/12/24 06:14:52;;;;;;;31.23;23.40;;;7.30;99.90;;;;;;5053813;28;20029;-56
2021/12/24 06:17:18;;;;;;;27.05;20.52;;;7.30;99.90;;;;;;5053514;28;20059;-58
2021/12/24 06:19:44;;;;;;;29.30;21.15;;;7.40;99.90;;;;;;5053321;28;20415;-56
2021/12/24 06:22:10;;;;;;;29.08;21.05;;;7.40;99.90;;;;;;5054597;28;20036;-54
2021/12/24 06:24:36;;;;;;;28.63;21.33;;;7.50;99.90;;;;;;5056401;28;20503;-54
2021/12/24 06:27:02;;;;;;;30.33;21.80;;;7.50;99.90;;;;;;5056451;28;20086;-57
2021/12/24 06:29:28;;;;;;;25.98;21.45;;;7.50;99.90;;;;;;5053356;28;20024;-56
2021/12/24 06:31:53;;;;;;;27.38;21.15;;;7.50;99.90;;;;;;5040879;28;20037;-54
2021/12/24 06:34:19;;;;;;;30.52;21.40;;;7.50;99.90;;;;;;5042587;28;20473;-55
2021/12/24 06:36:48;;;;;;;28.50;20.48;;;7.50;99.90;;;;;;5036991;28;20089;-54
2021/12/24 06:39:15;;;;;;;25.23;20.67;;;7.50;99.90;;;;;;5053637;28;20025;-53
2021/12/24 06:41:41;;;;;;;26.40;19.25;;;7.50;99.90;;;;;;5053764;28;20622;-53
2021/12/24 06:44:10;;;;;;;26.08;18.58;;;7.50;99.90;;;;;;5052788;28;20025;-55
2021/12/24 06:46:36;;;;;;;26.42;20.02;;;7.50;99.90;;;;;;5049577;28;20025;-55
2021/12/24 06:49:02;;;;;;;23.98;18.70;;;7.50;99.90;;;;;;5048531;28;20024;-54
2021/12/24 06:51:27;;;;;;;22.40;19.17;;;7.50;99.90;;;;;;5051876;28;20042;-56
2021/12/24 06:53:54;;;;;;;25.50;19.10;;;7.50;99.90;;;;;;5044677;28;20037;-54
2021/12/24 06:56:21;;;;;;;23.88;17.40;;;7.60;99.90;;;;;;5053514;28;20033;-55
2021/12/24 06:58:46;;;;;;;23.50;17.13;;;7.60;99.90;;;;;;5056370;28;20044;-54
2021/12/24 07:01:13;;;;;;;21.52;17.27;;;7.60;99.90;;;;;;5055365;28;20112;-53
2021/12/24 07:03:39;;;;;;;21.65;16.73;;;7.70;99.90;;;;;;5055011;28;20051;-53
2021/12/24 07:06:05;;;;;;;19.40;16.20;;;7.60;99.90;;;;;;5053152;28;20530;-56
2021/12/24 07:08:32;;;;;;;22.63;16.08;;;7.70;99.90;;;;;;5038321;28;20033;-54
2021/12/24 07:10:58;;;;;;;19.33;15.27;;;7.70;99.90;;;;;;5055726;28;20037;-54
2021/12/24 07:13:25;;;;;;;21.65;14.82;;;7.70;99.90;;;;;;5056863;28;20032;-56
2021/12/24 07:15:50;;;;;;;20.95;14.75;;;7.70;99.90;;;;;;5056942;28;20032;-57
2021/12/24 07:18:16;;;;;;;18.40;14.20;;;7.70;99.90;;;;;;5056895;28;20044;-56
2021/12/24 07:20:42;;;;;;;21.33;13.82;;;7.70;99.90;;;;;;5057226;28;20025;-54
2021/12/24 07:23:07;;;;;;;18.58;13.93;;;7.80;99.90;;;;;;5056360;28;20408;-53
2021/12/24 07:25:33;;;;;;;17.00;12.82;;;7.80;99.90;;;;;;5057650;28;20075;-52
2021/12/24 07:28:00;;;;;;;18.50;13.40;;;7.80;99.90;;;;;;5056550;28;20056;-56
2021/12/24 07:30:27;;;;;;;16.40;14.07;;;7.70;99.90;;;;;;5048630;28;20586;-57
2021/12/24 07:32:53;;;;;;;16.83;13.13;;;7.80;99.90;;;;;;5056149;28;20056;-55
2021/12/24 07:35:19;;;;;;;15.43;12.32;;;7.80;99.90;;;;;;5054405;28;20576;-52
2021/12/24 07:37:45;;;;;;;16.65;12.38;;;7.90;99.90;;;;;;5046837;28;20092;-58
2021/12/24 07:40:15;;;;;;;15.75;11.68;;;7.90;99.90;;;;;;5049825;28;20043;-54
2021/12/24 07:42:41;;;;;;;13.13;11.05;;;8.00;99.90;;;;;;5026579;28;20036;-52
2021/12/24 07:45:08;;;;;;;14.75;11.32;;;7.90;99.90;;;;;;5054427;28;20129;-54
2021/12/24 07:47:39;;;;;;;16.73;12.75;;;8.00;99.90;;;;;;5036497;28;20029;-55
2021/12/24 07:52:43;;;;;;;17.15;12.45;;;8.00;99.90;;;;;;5054308;28;20461;-53
2021/12/24 07:55:10;;;;;;;15.77;11.57;;;8.00;99.90;;;;;;5055863;28;20503;-61
2021/12/24 07:57:39;;;;;;;15.75;11.38;;;8.00;99.90;;;;;;5055209;28;20098;-60
2021/12/24 08:00:07;;;;;;;13.20;11.02;;;8.10;99.90;;;;;;5055604;28;20041;-54
2021/12/24 08:02:33;;;;;;;12.88;10.55;;;8.10;99.90;;;;;;5055552;28;20484;-60
2021/12/24 08:04:59;;;;;;;12.82;10.55;;;8.10;99.90;;;;;;5056485;28;20025;-59
2021/12/24 08:07:25;;;;;;;12.85;11.00;;;8.00;99.90;;;;;;5055312;28;20036;-59
2021/12/24 08:09:51;;;;;;;13.80;10.13;;;8.10;99.90;;;;;;5038352;28;20029;-59
2021/12/24 08:12:18;;;;;;;12.82;10.05;;;8.10;99.90;;;;;;5020940;28;20037;-60
2021/12/24 08:14:45;;;;;;;13.00;10.48;;;8.10;99.90;;;;;;5055957;28;20043;-60
2021/12/24 08:17:11;;;;;;;11.50;9.30;;;8.10;99.90;;;;;;5052307;28;20040;-58
2021/12/24 08:19:37;;;;;;;12.70;9.70;;;8.20;99.90;;;;;;5031253;28;20112;-63
2021/12/24 08:22:03;;;;;;;11.93;9.23;;;8.20;99.90;;;;;;5056242;28;20045;-58
2021/12/24 08:24:30;;;;;;;10.73;9.27;;;8.20;99.90;;;;;;5050551;28;20043;-60
2021/12/24 08:26:56;;;;;;;9.93;8.00;;;8.30;99.90;;;;;;5054454;28;20013;-61
2021/12/24 08:29:22;;;;;;;10.93;8.88;;;8.30;99.90;;;;;;5052756;28;20041;-61
2021/12/24 08:31:51;;;;;;;11.10;8.55;;;8.30;99.90;;;;;;5035443;28;20029;-59
2021/12/24 08:34:18;;;;;;;10.88;8.40;;;8.30;99.90;;;;;;5051331;28;20041;-59
2021/12/24 08:36:45;;;;;;;12.02;8.95;;;8.30;99.90;;;;;;5053030;28;20186;-58
2021/12/24 08:39:11;;;;;;;10.82;8.45;;;8.20;99.90;;;;;;5037674;28;20039;-59
2021/12/24 08:41:36;;;;;;;10.15;8.00;;;8.30;99.90;;;;;;5054359;28;20397;-55
2021/12/24 08:44:03;;;;;;;12.30;8.63;;;8.30;99.90;;;;;;5033810;28;20090;-59
2021/12/24 08:46:29;;;;;;;10.25;8.20;;;8.30;99.90;;;;;;5037502;28;20040;-59
2021/12/24 08:48:54;;;;;;;10.30;8.45;;;8.30;99.90;;;;;;5047709;28;20121;-57
2021/12/24 08:51:20;;;;;;;10.70;8.35;;;8.30;99.90;;;;;;5043922;28;20094;-61
2021/12/24 08:53:45;;;;;;;9.77;8.50;;;8.30;99.90;;;;;;5044215;28;20036;-60
2021/12/24 08:56:11;;;;;;;10.30;8.10;;;8.30;99.90;;;;;;5045220;28;20045;-59
2021/12/24 08:58:37;;;;;;;10.63;8.73;;;8.40;99.90;;;;;;5048088;28;20036;-61
2021/12/24 09:01:04;;;;;;;8.88;7.82;;;8.50;99.90;;;;;;5046676;28;20547;-58
2021/12/24 09:03:30;;;;;;;8.63;7.32;;;8.40;99.90;;;;;;5046351;28;20037;-60
2021/12/24 09:05:55;;;;;;;9.40;7.85;;;8.60;99.90;;;;;;5045398;28;20469;-58
2021/12/24 09:08:21;;;;;;;11.75;8.82;;;8.60;99.90;;;;;;5048166;28;20036;-59
2021/12/24 09:10:47;;;;;;;11.32;8.30;;;8.70;99.90;;;;;;5043739;28;20032;-60
2021/12/24 09:13:12;;;;;;;9.15;7.53;;;8.70;99.90;;;;;;5046635;28;20037;-60
2021/12/24 09:15:40;;;;;;;8.98;7.13;;;8.70;99.90;;;;;;5043708;28;20060;-56
2021/12/24 09:18:06;;;;;;;8.65;6.97;;;8.80;99.90;;;;;;5031329;28;20045;-61
2021/12/24 09:20:38;;;;;;;7.38;6.60;;;8.70;99.90;;;;;;5044536;28;20123;-59
2021/12/24 09:23:05;;;;;;;7.95;6.80;;;8.70;99.90;;;;;;5048099;28;20044;-60
2021/12/24 09:25:32;;;;;;;7.63;6.00;;;8.80;99.90;;;;;;5048318;28;20054;-55
2021/12/24 09:27:59;;;;;;;7.53;5.90;;;8.80;99.90;;;;;;5036186;28;20051;-61
2021/12/24 09:30:26;;;;;;;7.28;6.03;;;9.00;99.90;;;;;;5035849;28;20031;-60
2021/12/24 09:32:52;;;;;;;7.63;5.90;;;9.00;99.90;;;;;;5053709;28;20045;-55
2021/12/24 09:35:19;;;;;;;9.25;6.45;;;9.10;99.90;;;;;;5037262;28;20040;-56
2021/12/24 09:37:44;;;;;;;7.53;5.75;;;9.10;99.90;;;;;;5054022;28;20025;-58
2021/12/24 09:40:12;;;;;;;8.13;6.30;;;9.20;99.90;;;;;;5036433;28;20041;-59
2021/12/24 09:42:38;;;;;;;8.52;5.82;;;9.20;99.90;;;;;;5051047;28;20110;-58
2021/12/24 09:45:05;;;;;;;7.10;6.40;;;9.30;99.90;;;;;;5054179;28;20039;-59
2021/12/24 09:47:31;;;;;;;6.57;5.88;;;9.30;99.90;;;;;;5054831;28;20386;-58
2021/12/24 09:49:57;;;;;;;8.70;5.93;;;9.20;99.90;;;;;;5054468;28;20511;-57
2021/12/24 09:52:23;;;;;;;7.30;5.78;;;9.20;99.90;;;;;;5049309;28;20033;-58
2021/12/24 09:54:49;;;;;;;6.50;5.80;;;9.10;99.90;;;;;;5045159;28;20033;-58
2021/12/24 09:57:15;;;;;;;8.32;6.43;;;9.10;99.90;;;;;;5036435;28;20029;-58
2021/12/24 09:59:41;;;;;;;7.10;6.03;;;9.10;99.90;;;;;;5020320;28;20607;-56
2021/12/24 10:02:13;;;;;;;6.72;5.50;;;9.20;99.90;;;;;;5054174;28;20068;-58
2021/12/24 10:04:39;;;;;;;7.50;5.72;;;9.30;99.90;;;;;;5053866;28;20036;-58
2021/12/24 10:07:08;;;;;;;8.02;6.03;;;9.30;99.90;;;;;;5053914;28;20055;-59
2021/12/24 10:09:37;;;;;;;8.23;5.95;;;9.30;99.90;;;;;;5037194;28;20033;-56
2021/12/24 10:12:06;;;;;;;7.60;5.47;;;9.30;99.90;;;;;;5045984;28;20030;-58
2021/12/24 10:14:46;;;;;;;7.45;5.47;;;9.30;99.90;;;;;;5033032;28;20033;-57
2021/12/24 10:17:21;;;;;;;7.68;5.80;;;9.40;99.90;;;;;;5044862;28;20492;-60
2021/12/24 10:19:53;;;;;;;12.93;6.13;;;9.20;99.90;;;;;;5036019;28;20078;-53
2021/12/24 10:22:21;;;;;;;6.90;5.82;;;9.30;99.90;;;;;;5052340;28;20041;-51
2021/12/24 10:25:07;;;;;;;7.32;6.20;;;9.30;99.90;;;;;;5035752;28;20119;-51
2021/12/24 10:27:34;;;;;;;8.00;5.88;;;9.30;99.90;;;;;;5053112;28;20032;-50
2021/12/24 10:30:13;;;;;;;6.97;5.40;;;9.20;99.90;;;;;;5034486;28;20124;-58
2021/12/24 10:32:39;;;;;;;6.25;5.20;;;9.20;99.90;;;;;;5052281;28;20044;-51
2021/12/24 10:35:22;;;;;;;6.38;5.70;;;9.20;99.90;;;;;;5053081;28;20608;-49
2021/12/24 10:38:17;;;;;;;6.32;5.20;;;9.20;99.90;;;;;;5035048;28;20029;-55
2021/12/24 10:40:55;;;;;;;6.68;5.63;;;9.20;99.90;;;;;;5052990;28;20029;-50
2021/12/24 10:43:30;;;;;;;6.95;5.53;;;9.20;99.90;;;;;;5035100;28;20041;-53
2021/12/24 10:46:28;;;;;;;6.53;5.53;;;9.30;99.90;;;;;;5052720;28;20068;-53
2021/12/24 10:49:07;;;;;;;6.60;5.35;;;9.30;99.90;;;;;;5008508;28;20564;-52
2021/12/24 10:52:15;;;;;;;5.80;5.20;;;9.30;99.90;;;;;;5016012;28;20044;-53
2021/12/24 10:54:56;;;;;;;6.95;5.05;;;9.30;99.90;;;;;;5039530;28;20021;-52
2021/12/24 10:57:24;;;;;;;6.28;5.20;;;9.40;99.90;;;;;;5034977;28;20029;-53
2021/12/24 10:59:53;;;;;;;6.32;5.65;;;9.40;99.90;;;;;;5035249;28;20045;-54
2021/12/24 11:02:20;;;;;;;6.60;5.00;;;9.40;99.90;;;;;;5034442;28;20041;-55
2021/12/24 11:04:50;;;;;;;6.63;4.97;;;9.50;99.90;;;;;;5052544;28;20039;-49
2021/12/24 11:07:35;;;;;;;7.43;5.80;;;9.60;99.90;;;;;;5052919;28;20068;-51
2021/12/24 11:10:14;;;;;;;7.72;5.25;;;9.50;99.90;;;;;;5052615;28;20423;-54
2021/12/24 11:12:40;;;;;;;6.40;5.60;;;9.40;99.90;;;;;;5032388;28;20061;-49
2021/12/24 11:15:18;;;;;;;5.70;5.07;;;9.40;99.90;;;;;;5032677;28;20028;-55
2021/12/24 11:17:44;;;;;;;8.60;5.95;;;9.50;99.90;;;;;;5032969;28;20095;-51
2021/12/24 11:20:10;;;;;;;8.07;5.53;;;9.50;99.90;;;;;;5032739;28;20033;-56
2021/12/24 11:23:04;;;;;;;7.82;5.55;;;9.60;99.90;;;;;;5025762;28;20048;-57
2021/12/24 11:25:33;;;;;;;8.88;6.90;;;9.60;99.90;;;;;;5052984;28;20384;-55
2021/12/24 11:27:59;;;;;;;8.55;5.88;;;9.60;99.90;;;;;;5052325;28;20404;-55
2021/12/24 11:30:27;;;;;;;8.30;6.32;;;9.60;99.90;;;;;;5052097;28;20108;-50
2021/12/24 11:32:53;;;;;;;7.97;6.00;;;9.60;99.90;;;;;;5052371;28;20033;-53
2021/12/24 11:35:19;;;;;;;7.53;5.47;;;9.70;99.90;;;;;;5051553;28;20074;-57
2021/12/24 11:37:47;;;;;;;7.43;5.95;;;9.70;99.90;;;;;;5052058;28;20041;-51
2021/12/24 11:40:15;;;;;;;7.55;5.90;;;9.90;99.90;;;;;;5053025;28;20029;-55
2021/12/24 11:42:46;;;;;;;8.40;6.35;;;9.80;99.90;;;;;;5051896;28;20018;-51
2021/12/24 11:45:12;;;;;;;7.38;6.07;;;9.70;99.90;;;;;;5056093;28;20021;-54
2021/12/24 11:47:38;;;;;;;8.48;5.78;;;9.80;99.90;;;;;;5056394;28;20492;-53
2021/12/24 11:50:05;;;;;;;7.55;6.57;;;9.70;99.90;;;;;;5056178;28;20048;-51
2021/12/24 11:52:31;;;;;;;7.60;6.13;;;9.80;99.90;;;;;;5055361;28;20063;-56
2021/12/24 11:54:58;;;;;;;7.70;5.95;;;9.80;99.90;;;;;;5050861;28;20480;-52
2021/12/24 11:57:24;;;;;;;9.48;6.68;;;9.80;99.90;;;;;;5051883;28;20120;-50
2021/12/24 11:59:51;;;;;;;7.10;6.30;;;9.80;99.90;;;;;;5050597;28;20060;-51
2021/12/24 12:02:45;;;;;;;8.57;6.32;;;9.80;99.90;;;;;;5021010;28;20065;-55
2021/12/24 12:05:15;;;;;;;10.65;7.10;;;9.80;99.90;;;;;;5035732;28;20034;-55
2021/12/24 12:07:41;;;;;;;8.55;6.82;;;9.90;99.90;;;;;;5055260;28;20044;-55
2021/12/24 12:10:07;;;;;;;9.95;6.53;;;9.90;99.90;;;;;;5037088;28;20033;-55
2021/12/24 12:12:39;;;;;;;8.18;6.40;;;9.90;99.90;;;;;;5055511;28;20033;-56
2021/12/24 12:15:28;;;;;;;8.93;6.60;;;9.90;99.90;;;;;;5054761;28;20092;-55
2021/12/24 12:17:58;;;;;;;9.07;7.10;;;9.90;99.90;;;;;;5055094;28;20065;-56
2021/12/24 12:20:47;;;;;;;8.63;7.47;;;9.90;99.90;;;;;;5055042;28;20420;-55
2021/12/24 12:23:46;;;;;;;8.68;7.22;;;9.80;99.90;;;;;;5053890;28;20045;-53
2021/12/24 12:26:35;;;;;;;8.02;7.00;;;9.80;99.90;;;;;;5047438;28;20033;-54
2021/12/24 12:29:43;;;;;;;9.02;7.65;;;9.80;99.90;;;;;;5035974;28;20513;-57
2021/12/24 12:32:14;;;;;;;9.48;7.18;;;9.80;99.90;;;;;;4922402;29;20075;-56
2021/12/24 12:34:43;;;;;;;11.77;7.63;;;9.70;99.90;;;;;;4954629;29;20035;-55
2021/12/24 12:37:22;;;;;;;10.75;7.22;;;9.70;99.90;;;;;;5009900;28;20123;-55
2021/12/24 12:40:15;;;;;;;11.38;7.68;;;9.70;99.90;;;;;;5036607;28;20029;-56
2021/12/24 12:42:50;;;;;;;10.07;8.07;;;9.70;99.90;;;;;;5034267;28;20060;-53
2021/12/24 12:45:21;;;;;;;11.15;7.20;;;9.60;99.90;;;;;;5054552;28;20540;-57
2021/12/24 12:47:59;;;;;;;9.13;7.72;;;9.60;99.90;;;;;;5054760;28;20091;-58
2021/12/24 12:50:27;;;;;;;9.18;7.22;;;9.50;99.90;;;;;;5021083;28;20033;-57
2021/12/24 12:53:25;;;;;;;11.98;6.90;;;9.50;99.90;;;;;;5054659;28;20128;-52
2021/12/24 12:56:29;;;;;;;9.13;7.18;;;9.60;99.90;;;;;;5054455;28;20021;-53
2021/12/24 12:58:59;;;;;;;11.70;7.57;;;9.60;99.90;;;;;;4954853;29;20031;-54
2021/12/24 13:01:26;;;;;;;7.80;6.75;;;9.60;99.90;;;;;;5021727;28;20128;-53
2021/12/24 13:03:57;;;;;;;10.77;7.80;;;9.70;99.90;;;;;;5034376;28;20423;-55
2021/12/24 13:06:24;;;;;;;9.18;7.15;;;9.60;99.90;;;;;;5034593;28;20030;-56
2021/12/24 13:08:50;;;;;;;10.55;7.50;;;9.60;99.90;;;;;;5034445;28;20110;-56
2021/12/24 13:11:20;;;;;;;10.32;7.03;;;9.60;99.90;;;;;;5034495;28;20064;-51
2021/12/24 13:13:56;;;;;;;10.98;7.15;;;9.50;99.90;;;;;;5017376;28;20025;-56
2021/12/24 13:16:36;;;;;;;10.38;7.65;;;9.50;99.90;;;;;;5035089;28;20091;-56
2021/12/24 13:19:23;;;;;;;10.48;7.10;;;9.50;99.90;;;;;;5034523;28;20025;-52
2021/12/24 13:24:54;;;;;;;7.57;6.47;;;9.60;99.90;;;;;;5053890;28;20496;-55
2021/12/24 13:27:26;;;;;;;10.10;7.03;;;9.60;99.90;;;;;;5036550;28;20032;-56
2021/12/24 13:30:07;;;;;;;13.27;7.07;;;9.50;99.90;;;;;;5053467;28;20017;-53
2021/12/24 13:32:38;;;;;;;11.68;6.95;;;9.50;99.90;;;;;;5035239;28;20068;-56
2021/12/24 13:35:03;;;;;;;10.38;7.38;;;9.50;99.90;;;;;;5054274;28;20075;-56
2021/12/24 13:37:31;;;;;;;11.77;7.82;;;9.50;99.90;;;;;;5036326;28;20025;-52
2021/12/24 13:39:57;;;;;;;9.00;7.72;;;9.50;99.90;;;;;;5036161;28;20060;-56
2021/12/24 13:42:22;;;;;;;8.63;7.05;;;9.40;99.90;;;;;;5053315;28;20033;-58
2021/12/24 13:44:49;;;;;;;8.95;7.05;;;9.40;99.90;;;;;;5054101;28;20423;-55
2021/12/24 13:48:24;;;;;;;10.95;7.70;;;9.40;99.90;;;;;;5054001;28;20033;-52
2021/12/24 13:55:38;;;;;;;13.55;8.50;;;9.40;99.90;;;;;;5054015;28;20037;-53
2021/12/24 13:58:08;;;;;;;14.57;8.02;;;9.30;99.90;;;;;;5054066;28;20021;-57
2021/12/24 14:00:37;;;;;;;9.57;8.48;;;9.20;99.90;;;;;;5054090;28;20017;-55
2021/12/24 14:03:06;;;;;;;10.18;7.45;;;9.20;99.90;;;;;;5054121;28;20041;-54
2021/12/24 14:05:32;;;;;;;10.85;7.63;;;9.30;99.90;;;;;;5053579;28;20053;-57
2021/12/24 14:08:06;;;;;;;8.98;7.30;;;9.20;99.90;;;;;;5054022;28;20095;-56
2021/12/24 14:10:32;;;;;;;12.20;7.97;;;9.20;99.90;;;;;;5053861;28;20437;-55
2021/12/24 14:13:04;;;;;;;11.70;7.90;;;9.30;99.90;;;;;;5035635;28;20139;-53
2021/12/24 14:15:32;;;;;;;14.02;8.13;;;9.20;99.90;;;;;;5053048;28;20028;-55
2021/12/24 14:18:22;;;;;;;10.23;8.05;;;9.20;99.90;;;;;;5052733;28;20120;-51
2021/12/24 14:21:44;;;;;;;8.88;7.57;;;9.10;99.90;;;;;;5053476;28;20392;-54
2021/12/24 14:23:33;;;;;;;9.65;6.60;;;9.10;99.90;;;;;;5052383;28;20060;-52
2021/12/24 14:26:01;;;;;;;11.20;7.65;;;9.00;99.90;;;;;;5053395;28;20083;-54
2021/12/24 14:28:27;;;;;;;12.18;8.15;;;9.10;99.90;;;;;;5053543;28;20047;-56
2021/12/24 14:31:04;;;;;;;11.18;7.63;;;9.00;99.90;;;;;;5053902;28;20037;-56
2021/12/24 14:33:35;;;;;;;9.20;7.32;;;9.10;99.90;;;;;;5035426;28;20029;-53
2021/12/24 14:36:02;;;;;;;11.90;8.32;;;9.00;99.90;;;;;;5035613;28;20492;-53
2021/12/24 14:38:28;;;;;;;10.63;7.15;;;9.00;99.90;;;;;;5053219;28;20408;-53